Time;durP1;ratioP1;P1;durP2;ratioP2;P2;SDS_P1;SDS_P2;PMS_P1;PMS_P2;Temp;Humidity;BMP_temperature;BMP_pressure;BME280_temperature;BME280_humidity;BME280_pressure;Samples;Min_cycle;Max_cycle;Signal;HPM_P1;HPM_P2
2023/12/13 00:00:43;;;;;;;39.83;21.70;;;;;;;;;;5032928;28;20037;-61
2023/12/13 00:03:11;;;;;;;39.08;20.67;;;;;;;;;;5015721;28;20062;-61
2023/12/13 00:05:39;;;;;;;38.22;21.25;;;;;;;;;;5032917;28;20124;-60
2023/12/13 00:08:07;;;;;;;37.97;21.20;;;;;;;;;;5033025;28;20103;-63
2023/12/13 00:10:34;;;;;;;42.03;21.98;;;;;;;;;;4998797;28;20058;-61
2023/12/13 00:13:03;;;;;;;49.65;21.83;;;;;;;;;;5015268;28;20076;-62
2023/12/13 00:15:31;;;;;;;38.25;20.25;;;;;;;;;;5015280;28;20506;-62
2023/12/13 00:17:58;;;;;;;41.75;20.83;;;;;;;;;;5032815;28;20034;-60
2023/12/13 00:20:26;;;;;;;47.03;22.48;;;;;;;;;;5032582;28;20112;-63
2023/12/13 00:22:54;;;;;;;48.72;22.67;;;;;;;;;;5032760;28;20560;-61
2023/12/13 00:25:21;;;;;;;45.42;21.52;;;;;;;;;;5032739;28;20045;-61
2023/12/13 00:27:51;;;;;;;53.45;22.75;;;;;;;;;;5015239;28;20037;-63
2023/12/13 00:30:19;;;;;;;53.78;23.02;;;;;;;;;;5032435;28;20071;-61
2023/12/13 00:32:47;;;;;;;56.05;22.23;;;;;;;;;;5032925;28;20045;-61
2023/12/13 00:35:14;;;;;;;74.05;22.38;;;;;;;;;;5015126;28;20125;-61
2023/12/13 00:37:42;;;;;;;85.00;23.73;;;;;;;;;;5014916;28;20495;-60
2023/12/13 00:40:10;;;;;;;81.47;21.75;;;;;;;;;;5032834;28;20042;-61
2023/12/13 00:42:38;;;;;;;73.97;22.58;;;;;;;;;;5032549;28;20047;-60
2023/12/13 00:45:06;;;;;;;61.47;22.50;;;;;;;;;;5032493;28;20095;-61
2023/12/13 00:47:33;;;;;;;70.43;24.13;;;;;;;;;;5032576;28;20037;-62
2023/12/13 00:50:02;;;;;;;68.50;23.70;;;;;;;;;;5034578;28;20511;-60
2023/12/13 00:52:31;;;;;;;49.45;23.38;;;;;;;;;;5019212;28;20048;-63
2023/12/13 00:55:00;;;;;;;47.08;23.77;;;;;;;;;;5036487;28;20530;-61
2023/12/13 00:57:28;;;;;;;49.28;23.55;;;;;;;;;;5036480;28;20045;-60
2023/12/13 00:59:56;;;;;;;47.10;23.30;;;;;;;;;;5036824;28;20048;-61
2023/12/13 01:02:24;;;;;;;43.30;22.73;;;;;;;;;;5036544;28;20057;-59
2023/12/13 01:04:52;;;;;;;44.05;23.23;;;;;;;;;;5036458;28;20030;-63
2023/12/13 01:07:19;;;;;;;47.35;23.40;;;;;;;;;;5036205;28;20049;-63
2023/12/13 01:09:47;;;;;;;46.40;24.40;;;;;;;;;;5018415;28;20393;-61
2023/12/13 01:12:15;;;;;;;46.53;24.50;;;;;;;;;;5036190;28;20038;-63
2023/12/13 01:14:43;;;;;;;45.45;24.35;;;;;;;;;;5036503;28;20622;-61
2023/12/13 01:17:12;;;;;;;45.75;24.50;;;;;;;;;;5036073;28;20084;-60
2023/12/13 01:19:40;;;;;;;44.58;23.77;;;;;;;;;;5035958;28;20099;-62
2023/12/13 01:22:08;;;;;;;44.65;23.83;;;;;;;;;;5036040;28;20056;-60
2023/12/13 01:24:37;;;;;;;44.30;22.83;;;;;;;;;;5035776;28;20384;-62
2023/12/13 01:27:05;;;;;;;40.25;23.15;;;;;;;;;;5035891;28;20144;-61
2023/12/13 01:29:33;;;;;;;43.55;24.48;;;;;;;;;;5035587;28;20053;-61
2023/12/13 01:32:00;;;;;;;44.00;23.40;;;;;;;;;;5035784;28;20037;-63
2023/12/13 01:34:28;;;;;;;41.75;22.42;;;;;;;;;;5018583;28;20498;-61
2023/12/13 01:36:55;;;;;;;45.38;24.30;;;;;;;;;;5035751;28;20046;-61
2023/12/13 01:39:24;;;;;;;45.25;23.70;;;;;;;;;;5018266;28;20521;-62
2023/12/13 01:41:52;;;;;;;43.40;23.55;;;;;;;;;;5035671;28;20037;-60
2023/12/13 01:44:19;;;;;;;43.45;23.45;;;;;;;;;;5035531;28;20513;-63
2023/12/13 01:46:47;;;;;;;46.33;23.50;;;;;;;;;;5035250;28;20434;-61
2023/12/13 01:49:15;;;;;;;44.88;24.35;;;;;;;;;;5035424;28;20499;-60
2023/12/13 01:51:44;;;;;;;43.42;23.40;;;;;;;;;;5035523;28;20491;-61
2023/12/13 01:54:13;;;;;;;45.70;24.40;;;;;;;;;;5035374;28;20430;-61
2023/12/13 01:56:42;;;;;;;44.97;24.42;;;;;;;;;;5035424;28;20526;-62
2023/12/13 01:59:10;;;;;;;44.03;24.27;;;;;;;;;;5017838;28;20041;-62
2023/12/13 02:01:38;;;;;;;44.10;23.52;;;;;;;;;;5034444;28;20049;-60
2023/12/13 02:04:06;;;;;;;45.00;22.88;;;;;;;;;;5035456;28;20041;-61
2023/12/13 02:06:34;;;;;;;44.47;24.70;;;;;;;;;;5035416;28;20053;-61
2023/12/13 02:09:03;;;;;;;43.33;23.65;;;;;;;;;;5035205;28;20498;-59
2023/12/13 02:11:30;;;;;;;42.92;23.48;;;;;;;;;;5035157;28;20095;-61
2023/12/13 02:13:58;;;;;;;45.95;24.75;;;;;;;;;;5034980;28;20530;-60
2023/12/13 02:16:26;;;;;;;42.92;23.52;;;;;;;;;;5035070;28;20038;-61
2023/12/13 02:18:54;;;;;;;43.17;23.65;;;;;;;;;;5017266;28;20042;-61
2023/12/13 02:21:24;;;;;;;46.83;24.58;;;;;;;;;;5034941;28;20038;-60
2023/12/13 02:23:53;;;;;;;45.28;24.45;;;;;;;;;;5034888;28;20566;-62
2023/12/13 02:26:21;;;;;;;41.95;22.45;;;;;;;;;;5017471;28;20510;-61
2023/12/13 02:28:49;;;;;;;41.35;23.33;;;;;;;;;;5034861;28;20046;-61
2023/12/13 02:31:17;;;;;;;41.67;22.25;;;;;;;;;;5016754;28;20057;-63
2023/12/13 02:33:45;;;;;;;45.08;23.85;;;;;;;;;;5034950;28;20111;-61
2023/12/13 02:36:13;;;;;;;45.92;24.15;;;;;;;;;;5034705;28;20072;-61
2023/12/13 02:38:41;;;;;;;46.47;24.92;;;;;;;;;;5034840;28;20052;-61
2023/12/13 02:41:09;;;;;;;43.55;22.60;;;;;;;;;;5034601;28;20124;-59
2023/12/13 02:43:36;;;;;;;42.63;22.40;;;;;;;;;;5034396;28;20103;-61
2023/12/13 02:46:04;;;;;;;40.08;22.38;;;;;;;;;;5034454;28;20041;-59
2023/12/13 02:48:32;;;;;;;40.60;22.42;;;;;;;;;;5016727;28;20045;-60
2023/12/13 02:51:00;;;;;;;42.97;22.52;;;;;;;;;;5016755;28;20051;-61
2023/12/13 02:53:27;;;;;;;43.85;21.63;;;;;;;;;;5000603;28;20136;-61
2023/12/13 02:55:55;;;;;;;39.45;20.58;;;;;;;;;;5034219;28;20064;-61
2023/12/13 02:58:23;;;;;;;38.80;20.77;;;;;;;;;;5033001;28;20087;-61
2023/12/13 03:00:51;;;;;;;38.10;20.88;;;;;;;;;;5016746;28;20136;-60
2023/12/13 03:03:18;;;;;;;37.85;20.05;;;;;;;;;;5034174;28;20542;-60
2023/12/13 03:05:47;;;;;;;35.95;20.13;;;;;;;;;;5016307;28;20054;-59
2023/12/13 03:08:17;;;;;;;40.97;20.33;;;;;;;;;;5034063;28;20037;-60
2023/12/13 03:10:45;;;;;;;36.88;19.95;;;;;;;;;;5033953;28;20426;-61
2023/12/13 03:13:13;;;;;;;42.20;20.23;;;;;;;;;;5033676;28;20045;-60
2023/12/13 03:15:41;;;;;;;37.70;18.95;;;;;;;;;;5033928;28;20091;-60
2023/12/13 03:18:08;;;;;;;36.28;20.25;;;;;;;;;;5033943;28;20517;-60
2023/12/13 03:20:36;;;;;;;39.47;17.58;;;;;;;;;;5033902;28;20049;-59
2023/12/13 03:23:07;;;;;;;39.47;18.35;;;;;;;;;;5033813;28;20402;-61
2023/12/13 03:25:35;;;;;;;33.42;16.52;;;;;;;;;;5034028;28;20045;-62
2023/12/13 03:28:02;;;;;;;37.72;17.67;;;;;;;;;;5033660;28;20034;-61
2023/12/13 03:30:30;;;;;;;34.70;17.45;;;;;;;;;;5016037;28;20049;-63
2023/12/13 03:32:58;;;;;;;36.28;18.55;;;;;;;;;;5033468;28;20415;-60
2023/12/13 03:35:26;;;;;;;34.00;17.63;;;;;;;;;;5015729;28;20499;-59
2023/12/13 03:37:53;;;;;;;35.38;17.40;;;;;;;;;;5033428;28;20037;-59
2023/12/13 03:40:21;;;;;;;34.25;17.77;;;;;;;;;;5033677;28;20037;-59
2023/12/13 03:42:49;;;;;;;33.53;17.23;;;;;;;;;;5033298;28;20042;-59
2023/12/13 03:45:16;;;;;;;32.92;16.20;;;;;;;;;;5033357;28;20529;-59
2023/12/13 03:47:44;;;;;;;31.48;17.98;;;;;;;;;;5015991;28;20069;-59
2023/12/13 03:50:12;;;;;;;33.88;17.33;;;;;;;;;;5033080;28;20069;-59
2023/12/13 03:52:39;;;;;;;34.92;18.23;;;;;;;;;;5015703;28;20120;-59
2023/12/13 03:55:07;;;;;;;33.97;17.45;;;;;;;;;;5015416;28;20041;-59
2023/12/13 03:57:35;;;;;;;35.38;18.23;;;;;;;;;;5015452;28;20442;-59
2023/12/13 04:00:03;;;;;;;32.17;17.35;;;;;;;;;;5033059;28;20048;-59
2023/12/13 04:02:38;;;;;;;32.10;17.42;;;;;;;;;;5033061;28;20049;-59
2023/12/13 04:05:06;;;;;;;32.90;17.85;;;;;;;;;;5033017;28;20399;-59
2023/12/13 04:07:34;;;;;;;32.10;16.80;;;;;;;;;;5032967;28;20095;-59
2023/12/13 04:10:02;;;;;;;40.88;18.63;;;;;;;;;;5032784;28;20041;-59
2023/12/13 04:12:29;;;;;;;32.22;16.85;;;;;;;;;;5032849;28;20155;-59
2023/12/13 04:14:57;;;;;;;37.65;17.67;;;;;;;;;;5032814;28;20487;-59
2023/12/13 04:17:25;;;;;;;31.85;18.02;;;;;;;;;;5033105;28;20141;-59
2023/12/13 04:19:54;;;;;;;32.92;17.45;;;;;;;;;;5032693;28;20475;-59
2023/12/13 04:22:22;;;;;;;33.10;17.52;;;;;;;;;;5032678;28;20069;-60
2023/12/13 04:24:49;;;;;;;35.80;18.33;;;;;;;;;;5032162;28;20045;-59
2023/12/13 04:27:17;;;;;;;31.60;16.52;;;;;;;;;;5032804;28;20045;-59
2023/12/13 04:29:45;;;;;;;35.00;17.73;;;;;;;;;;5032581;28;20056;-59
2023/12/13 04:32:12;;;;;;;29.35;16.70;;;;;;;;;;5014969;28;20044;-59
2023/12/13 04:34:40;;;;;;;33.08;18.63;;;;;;;;;;5032687;28;20034;-60
2023/12/13 04:37:08;;;;;;;35.05;20.08;;;;;;;;;;5032548;28;20049;-59
2023/12/13 04:39:35;;;;;;;32.78;18.05;;;;;;;;;;5032415;28;20033;-60
2023/12/13 04:42:05;;;;;;;33.55;17.95;;;;;;;;;;5032779;28;20049;-59
2023/12/13 04:44:33;;;;;;;33.67;18.02;;;;;;;;;;5032579;28;20440;-59
2023/12/13 04:47:00;;;;;;;36.38;18.65;;;;;;;;;;5032453;28;20455;-59
2023/12/13 04:49:31;;;;;;;33.55;17.48;;;;;;;;;;5032378;28;20041;-59
2023/12/13 04:51:59;;;;;;;33.08;17.17;;;;;;;;;;5032362;28;20046;-59
2023/12/13 04:54:26;;;;;;;34.25;17.63;;;;;;;;;;5032291;28;20112;-59
2023/12/13 04:56:54;;;;;;;30.67;16.85;;;;;;;;;;5032226;28;20120;-60
2023/12/13 04:59:21;;;;;;;31.98;17.88;;;;;;;;;;5040835;28;20037;-59
2023/12/13 05:01:49;;;;;;;37.10;19.40;;;;;;;;;;5052252;28;20083;-59
2023/12/13 05:04:17;;;;;;;46.45;23.30;;;;;;;;;;5052129;28;20579;-59
2023/12/13 05:06:45;;;;;;;35.58;18.17;;;;;;;;;;5052154;28;20453;-59
2023/12/13 05:09:12;;;;;;;29.52;15.77;;;;;;;;;;5052330;28;20061;-60
2023/12/13 05:11:40;;;;;;;31.50;15.90;;;;;;;;;;5051949;28;20049;-59
2023/12/13 05:14:07;;;;;;;32.22;16.33;;;;;;;;;;5051967;28;20482;-59
2023/12/13 05:16:35;;;;;;;30.60;16.15;;;;;;;;;;5051928;28;20051;-60
2023/12/13 05:19:02;;;;;;;34.83;17.90;;;;;;;;;;5051977;28;20037;-59
2023/12/13 05:21:31;;;;;;;30.95;16.98;;;;;;;;;;5052020;28;20080;-60
2023/12/13 05:23:58;;;;;;;30.80;17.20;;;;;;;;;;5051996;28;20068;-61
2023/12/13 05:26:26;;;;;;;31.35;17.63;;;;;;;;;;5052044;28;20513;-60
2023/12/13 05:28:54;;;;;;;28.42;16.35;;;;;;;;;;5051835;28;20517;-60
2023/12/13 05:31:22;;;;;;;32.38;16.20;;;;;;;;;;5051492;28;20132;-60
2023/12/13 05:33:50;;;;;;;31.08;17.10;;;;;;;;;;5034409;28;20045;-60
2023/12/13 05:36:18;;;;;;;31.40;17.25;;;;;;;;;;5054388;28;20051;-59
2023/12/13 05:38:46;;;;;;;32.30;17.52;;;;;;;;;;5055554;28;20056;-59
2023/12/13 05:41:13;;;;;;;33.28;17.77;;;;;;;;;;5037611;28;20041;-59
2023/12/13 05:43:41;;;;;;;32.85;18.20;;;;;;;;;;5055233;28;20060;-60
2023/12/13 05:46:08;;;;;;;33.65;18.02;;;;;;;;;;5055399;28;20045;-60
2023/12/13 05:48:36;;;;;;;34.70;17.92;;;;;;;;;;5055318;28;20044;-60
2023/12/13 05:51:04;;;;;;;35.78;18.98;;;;;;;;;;5055367;28;20116;-60
2023/12/13 05:53:31;;;;;;;30.85;17.55;;;;;;;;;;5055266;28;20045;-60
2023/12/13 05:56:00;;;;;;;32.15;16.83;;;;;;;;;;5037484;28;20056;-60
2023/12/13 05:58:29;;;;;;;30.88;17.45;;;;;;;;;;5055291;28;20060;-60
2023/12/13 06:00:57;;;;;;;30.77;16.88;;;;;;;;;;5055444;28;20071;-60
2023/12/13 06:03:25;;;;;;;27.08;15.95;;;;;;;;;;5054963;28;20041;-59
2023/12/13 06:05:55;;;;;;;30.30;16.15;;;;;;;;;;5055036;28;20041;-60
2023/12/13 06:08:23;;;;;;;28.23;16.05;;;;;;;;;;5054970;28;20693;-60
2023/12/13 06:10:51;;;;;;;29.27;17.17;;;;;;;;;;5055159;28;20400;-60
2023/12/13 06:13:18;;;;;;;31.73;16.98;;;;;;;;;;5054953;28;20045;-60
2023/12/13 06:15:47;;;;;;;31.13;17.30;;;;;;;;;;5055262;28;20132;-60
2023/12/13 06:18:14;;;;;;;30.02;17.10;;;;;;;;;;5054882;28;20045;-60
2023/12/13 06:20:42;;;;;;;31.90;18.20;;;;;;;;;;5054698;28;20045;-60
2023/12/13 06:23:09;;;;;;;30.00;17.73;;;;;;;;;;5054822;28;20041;-60
2023/12/13 06:25:37;;;;;;;33.30;18.70;;;;;;;;;;5054770;28;20068;-60
2023/12/13 06:28:05;;;;;;;31.85;17.90;;;;;;;;;;5054506;28;20499;-60
2023/12/13 06:30:32;;;;;;;31.88;17.70;;;;;;;;;;5054376;28;20099;-60
2023/12/13 06:33:00;;;;;;;33.15;19.77;;;;;;;;;;5054598;28;20449;-60
2023/12/13 06:35:28;;;;;;;34.45;19.40;;;;;;;;;;5037132;28;20056;-60
2023/12/13 06:37:55;;;;;;;32.22;18.30;;;;;;;;;;5054608;28;20040;-60
2023/12/13 06:40:24;;;;;;;30.10;18.60;;;;;;;;;;5054221;28;20122;-60
2023/12/13 06:42:52;;;;;;;30.40;17.52;;;;;;;;;;5054363;28;20145;-60
2023/12/13 06:45:20;;;;;;;33.78;18.08;;;;;;;;;;5054350;28;20120;-60
2023/12/13 06:47:48;;;;;;;32.30;19.40;;;;;;;;;;5053742;28;20406;-60
2023/12/13 06:50:16;;;;;;;35.28;17.77;;;;;;;;;;5054347;28;20487;-60
2023/12/13 06:52:47;;;;;;;33.92;19.10;;;;;;;;;;5054152;28;20049;-60
2023/12/13 06:55:15;;;;;;;32.65;19.05;;;;;;;;;;5054518;28;20112;-60
2023/12/13 06:57:42;;;;;;;33.17;19.38;;;;;;;;;;5054212;28;20041;-60
2023/12/13 07:00:10;;;;;;;32.97;18.45;;;;;;;;;;5054053;28;20037;-60
2023/12/13 07:02:39;;;;;;;34.33;19.70;;;;;;;;;;5054365;28;20041;-60
2023/12/13 07:05:07;;;;;;;33.92;19.33;;;;;;;;;;5054085;28;20103;-60
2023/12/13 07:07:35;;;;;;;32.78;18.75;;;;;;;;;;5054051;28;20076;-60
2023/12/13 07:10:04;;;;;;;32.42;18.73;;;;;;;;;;5053951;28;20043;-60
2023/12/13 07:12:31;;;;;;;38.28;20.35;;;;;;;;;;5053774;28;20510;-59
2023/12/13 07:14:59;;;;;;;34.38;19.33;;;;;;;;;;5053800;28;20086;-60
2023/12/13 07:17:26;;;;;;;32.95;19.58;;;;;;;;;;5053662;28;20051;-60
2023/12/13 07:19:54;;;;;;;32.80;19.63;;;;;;;;;;5053740;28;20060;-60
2023/12/13 07:22:22;;;;;;;34.58;19.83;;;;;;;;;;5053820;28;20037;-60
2023/12/13 07:24:50;;;;;;;34.13;19.90;;;;;;;;;;5035764;28;20453;-60
2023/12/13 07:27:18;;;;;;;37.97;22.38;;;;;;;;;;5053832;28;20041;-60
2023/12/13 07:29:46;;;;;;;32.53;19.58;;;;;;;;;;5053354;28;20053;-61
2023/12/13 07:32:13;;;;;;;31.75;19.10;;;;;;;;;;5053479;28;20041;-61
2023/12/13 07:34:44;;;;;;;35.65;20.30;;;;;;;;;;5053542;28;20071;-61
2023/12/13 07:37:11;;;;;;;34.97;20.55;;;;;;;;;;5053443;28;20044;-61
2023/12/13 07:39:39;;;;;;;39.10;22.05;;;;;;;;;;5053767;28;20041;-61
2023/12/13 07:42:07;;;;;;;36.92;21.48;;;;;;;;;;5053354;28;20552;-60
2023/12/13 07:44:35;;;;;;;36.45;20.88;;;;;;;;;;5053160;28;20120;-60
2023/12/13 07:47:03;;;;;;;37.95;21.27;;;;;;;;;;5053625;28;20446;-60
2023/12/13 07:49:30;;;;;;;35.67;18.85;;;;;;;;;;5053181;28;20041;-61
2023/12/13 07:51:58;;;;;;;37.67;20.73;;;;;;;;;;5035148;28;20045;-61
2023/12/13 07:54:26;;;;;;;35.60;20.48;;;;;;;;;;5053123;28;20033;-60
2023/12/13 07:56:53;;;;;;;36.47;20.63;;;;;;;;;;5053010;28;20512;-60
2023/12/13 07:59:21;;;;;;;38.00;22.02;;;;;;;;;;5052134;28;20037;-60
2023/12/13 08:01:48;;;;;;;36.55;22.08;;;;;;;;;;5053412;28;20049;-61
2023/12/13 08:04:16;;;;;;;31.77;20.17;;;;;;;;;;5053012;28;20057;-60
2023/12/13 08:06:44;;;;;;;36.17;19.67;;;;;;;;;;5052755;28;20041;-60
2023/12/13 08:09:11;;;;;;;32.35;19.52;;;;;;;;;;5052718;28;20086;-60
2023/12/13 08:11:39;;;;;;;37.38;21.02;;;;;;;;;;5052698;28;20071;-61
2023/12/13 08:14:06;;;;;;;33.88;21.23;;;;;;;;;;5052992;28;20095;-60
2023/12/13 08:16:34;;;;;;;33.72;20.00;;;;;;;;;;5052974;28;20118;-60
2023/12/13 08:19:02;;;;;;;35.40;20.75;;;;;;;;;;5052831;28;20057;-61
2023/12/13 08:21:30;;;;;;;38.80;21.52;;;;;;;;;;5053034;28;20434;-61
2023/12/13 08:23:57;;;;;;;34.70;21.25;;;;;;;;;;5052653;28;20091;-61
2023/12/13 08:26:25;;;;;;;33.15;19.10;;;;;;;;;;5052663;28;20080;-61
2023/12/13 08:28:53;;;;;;;34.67;22.02;;;;;;;;;;5052519;28;20099;-61
2023/12/13 08:31:33;;;;;;;33.03;20.90;;;;;;;;;;5052218;28;20160;-60
2023/12/13 08:34:00;;;;;;;39.95;24.10;;;;;;;;;;5052642;28;20080;-61
2023/12/13 08:36:28;;;;;;;33.67;21.98;;;;;;;;;;5052519;28;20120;-61
2023/12/13 08:38:56;;;;;;;31.05;19.08;;;;;;;;;;5052474;28;20060;-61
2023/12/13 08:41:23;;;;;;;31.80;19.25;;;;;;;;;;5052454;28;20409;-61
2023/12/13 08:43:51;;;;;;;34.33;19.90;;;;;;;;;;5052482;28;20044;-61
2023/12/13 08:46:18;;;;;;;32.13;20.33;;;;;;;;;;5052335;28;20491;-61
2023/12/13 08:48:46;;;;;;;34.95;22.02;;;;;;;;;;5052266;28;20037;-61
2023/12/13 08:51:14;;;;;;;38.05;22.67;;;;;;;;;;5052257;28;20053;-61
2023/12/13 08:53:41;;;;;;;36.50;21.55;;;;;;;;;;5052299;28;20033;-61
2023/12/13 08:56:09;;;;;;;36.75;22.33;;;;;;;;;;5052316;28;20120;-61
2023/12/13 08:58:37;;;;;;;41.08;22.77;;;;;;;;;;5034675;28;20331;-61
2023/12/13 09:01:05;;;;;;;40.13;23.65;;;;;;;;;;5052075;28;20120;-61
2023/12/13 09:03:33;;;;;;;37.08;22.77;;;;;;;;;;5052241;28;20049;-61
2023/12/13 09:06:01;;;;;;;36.67;23.15;;;;;;;;;;5034418;28;20045;-61
2023/12/13 09:08:28;;;;;;;35.85;22.13;;;;;;;;;;5052191;28;20040;-61
2023/12/13 09:10:56;;;;;;;36.03;21.17;;;;;;;;;;5054000;28;20406;-60
2023/12/13 09:13:24;;;;;;;31.90;19.75;;;;;;;;;;5055991;28;20507;-61
2023/12/13 09:15:51;;;;;;;29.35;19.30;;;;;;;;;;5056015;28;20495;-61
2023/12/13 09:18:19;;;;;;;28.63;18.00;;;;;;;;;;5056179;28;20548;-61
2023/12/13 09:20:47;;;;;;;28.25;18.13;;;;;;;;;;5055940;28;20402;-61
2023/12/13 09:23:24;;;;;;;29.08;19.30;;;;;;;;;;5055951;28;20048;-61
2023/12/13 09:25:52;;;;;;;31.25;20.20;;;;;;;;;;5055887;28;20045;-61
2023/12/13 09:28:20;;;;;;;28.55;18.33;;;;;;;;;;5055860;28;20100;-61
2023/12/13 09:30:47;;;;;;;24.80;16.52;;;;;;;;;;5055629;28;20177;-60
2023/12/13 09:33:15;;;;;;;26.05;17.48;;;;;;;;;;5055749;28;20106;-61
2023/12/13 09:35:43;;;;;;;26.85;17.15;;;;;;;;;;5055661;28;20482;-61
2023/12/13 09:38:11;;;;;;;28.02;17.63;;;;;;;;;;5055917;28;20272;-61
2023/12/13 09:40:38;;;;;;;28.88;18.20;;;;;;;;;;5055673;28;20152;-61
2023/12/13 09:43:06;;;;;;;29.38;18.90;;;;;;;;;;5055570;28;20037;-60
2023/12/13 09:45:36;;;;;;;25.60;17.05;;;;;;;;;;5055630;28;20049;-60
2023/12/13 09:48:03;;;;;;;25.85;16.60;;;;;;;;;;5056061;28;20048;-61
2023/12/13 09:50:34;;;;;;;26.30;17.17;;;;;;;;;;5055499;28;20415;-61
2023/12/13 09:53:04;;;;;;;26.23;16.95;;;;;;;;;;5055613;28;20049;-61
2023/12/13 09:55:34;;;;;;;27.58;16.48;;;;;;;;;;5055426;28;20398;-61
2023/12/13 09:58:02;;;;;;;26.02;15.77;;;;;;;;;;5055270;28;20102;-61
2023/12/13 10:00:29;;;;;;;26.63;15.60;;;;;;;;;;5055240;28;20135;-61
2023/12/13 10:02:57;;;;;;;30.08;18.15;;;;;;;;;;5055299;28;20045;-60
2023/12/13 10:05:27;;;;;;;33.88;21.35;;;;;;;;;;5055124;28;20553;-61
2023/12/13 10:08:02;;;;;;;26.20;17.40;;;;;;;;;;5054989;28;20124;-60
2023/12/13 10:10:35;;;;;;;24.40;16.20;;;;;;;;;;5055231;28;20044;-60
2023/12/13 10:13:02;;;;;;;25.92;16.23;;;;;;;;;;5055320;28;20127;-61
2023/12/13 10:15:31;;;;;;;26.23;16.52;;;;;;;;;;5055138;28;20045;-61
2023/12/13 10:17:59;;;;;;;20.65;13.63;;;;;;;;;;5054986;28;20037;-61
2023/12/13 10:20:27;;;;;;;23.70;15.25;;;;;;;;;;5054920;28;20048;-61
2023/12/13 10:22:55;;;;;;;22.15;14.70;;;;;;;;;;5053824;28;20076;-61
2023/12/13 10:25:23;;;;;;;22.15;13.95;;;;;;;;;;5055055;28;20482;-61
2023/12/13 10:27:53;;;;;;;24.45;16.00;;;;;;;;;;5036900;28;20410;-61
2023/12/13 10:30:21;;;;;;;26.60;16.38;;;;;;;;;;5054748;28;20140;-61
2023/12/13 10:32:48;;;;;;;23.85;16.23;;;;;;;;;;5054546;28;20079;-61
2023/12/13 10:35:16;;;;;;;25.77;16.38;;;;;;;;;;5054683;28;20041;-61
2023/12/13 10:37:47;;;;;;;25.70;17.08;;;;;;;;;;5036909;28;20045;-60
2023/12/13 10:40:17;;;;;;;27.27;17.20;;;;;;;;;;5054513;28;20124;-60
2023/12/13 10:42:48;;;;;;;29.13;19.15;;;;;;;;;;5054523;28;20074;-60
2023/12/13 10:45:18;;;;;;;33.88;20.95;;;;;;;;;;5054424;28;20033;-60
2023/12/13 10:47:46;;;;;;;34.85;23.42;;;;;;;;;;5054344;28;20499;-60
2023/12/13 10:50:15;;;;;;;32.08;21.83;;;;;;;;;;5054611;28;20044;-60
2023/12/13 10:52:43;;;;;;;31.08;20.33;;;;;;;;;;5054256;28;20402;-60
2023/12/13 10:55:14;;;;;;;30.20;19.05;;;;;;;;;;5054279;28;20124;-60
2023/12/13 10:57:42;;;;;;;30.77;19.50;;;;;;;;;;5054293;28;20048;-60
2023/12/13 11:00:10;;;;;;;30.33;20.35;;;;;;;;;;5054237;28;20538;-60
2023/12/13 11:02:58;;;;;;;33.20;21.45;;;;;;;;;;5054407;28;20037;-60
2023/12/13 11:05:26;;;;;;;34.15;22.20;;;;;;;;;;5053882;28;20384;-60
2023/12/13 11:07:53;;;;;;;35.58;21.52;;;;;;;;;;5054299;28;20375;-60
2023/12/13 11:10:22;;;;;;;32.58;19.77;;;;;;;;;;5053985;28;20466;-60
2023/12/13 11:12:51;;;;;;;39.65;23.50;;;;;;;;;;5053874;28;20037;-60
2023/12/13 11:15:19;;;;;;;34.00;19.90;;;;;;;;;;5053753;28;20071;-60
2023/12/13 11:17:49;;;;;;;37.90;23.10;;;;;;;;;;5053846;28;20112;-60
2023/12/13 11:20:17;;;;;;;31.50;20.70;;;;;;;;;;5036245;28;20044;-60
2023/12/13 11:22:49;;;;;;;37.55;22.45;;;;;;;;;;5036686;28;20033;-60
2023/12/13 11:25:17;;;;;;;33.40;21.33;;;;;;;;;;5053687;28;20473;-61
2023/12/13 11:27:51;;;;;;;32.55;19.85;;;;;;;;;;5053629;28;20037;-61
2023/12/13 11:30:19;;;;;;;34.90;21.13;;;;;;;;;;5053525;28;20087;-60
2023/12/13 11:32:47;;;;;;;37.97;22.02;;;;;;;;;;5053610;28;20406;-60
2023/12/13 11:35:17;;;;;;;31.85;19.52;;;;;;;;;;5035476;28;20041;-60
2023/12/13 11:37:52;;;;;;;30.50;18.90;;;;;;;;;;5035572;28;20490;-60
2023/12/13 11:40:20;;;;;;;33.63;19.50;;;;;;;;;;5053372;28;20452;-60
2023/12/13 11:42:48;;;;;;;33.58;19.75;;;;;;;;;;5053568;28;20041;-60
2023/12/13 11:45:18;;;;;;;32.00;18.15;;;;;;;;;;5053187;28;20043;-60
2023/12/13 11:47:47;;;;;;;33.55;19.70;;;;;;;;;;5053195;28;20056;-60
2023/12/13 11:50:16;;;;;;;39.42;25.23;;;;;;;;;;5053258;28;20386;-60
2023/12/13 11:52:44;;;;;;;33.28;20.60;;;;;;;;;;5053011;28;20032;-60
2023/12/13 11:55:12;;;;;;;33.55;20.08;;;;;;;;;;5053353;28;20116;-60
2023/12/13 11:57:45;;;;;;;32.83;19.55;;;;;;;;;;5053315;28;20048;-60
2023/12/13 12:00:13;;;;;;;31.80;19.00;;;;;;;;;;5053309;28;20033;-60
2023/12/13 12:02:41;;;;;;;34.88;20.52;;;;;;;;;;5052946;28;20407;-60
2023/12/13 12:05:08;;;;;;;36.38;22.00;;;;;;;;;;5052925;28;20521;-60
2023/12/13 12:07:36;;;;;;;39.45;21.85;;;;;;;;;;5053177;28;20041;-60
2023/12/13 12:10:05;;;;;;;34.42;19.42;;;;;;;;;;5053074;28;20056;-60
2023/12/13 12:12:35;;;;;;;32.03;19.45;;;;;;;;;;5052777;28;20045;-60
2023/12/13 12:15:06;;;;;;;33.42;20.20;;;;;;;;;;5052764;28;20490;-60
2023/12/13 12:17:33;;;;;;;41.75;21.67;;;;;;;;;;5052545;28;20049;-60
2023/12/13 12:20:03;;;;;;;29.70;19.50;;;;;;;;;;5052771;28;20041;-60
2023/12/13 12:22:33;;;;;;;36.22;23.38;;;;;;;;;;5035300;28;20060;-61
2023/12/13 12:25:01;;;;;;;30.38;17.63;;;;;;;;;;5052691;28;20053;-61
2023/12/13 12:27:29;;;;;;;26.80;17.92;;;;;;;;;;5052754;28;20036;-61
2023/12/13 12:29:57;;;;;;;28.58;19.08;;;;;;;;;;5035253;28;20106;-61
2023/12/13 12:32:24;;;;;;;32.03;18.50;;;;;;;;;;5052387;28;20041;-60
2023/12/13 12:34:52;;;;;;;29.30;18.67;;;;;;;;;;5052442;28;20486;-60
2023/12/13 12:37:20;;;;;;;26.73;18.17;;;;;;;;;;5052376;28;20479;-60
2023/12/13 12:39:47;;;;;;;27.42;17.10;;;;;;;;;;5052638;28;20051;-60
2023/12/13 12:42:15;;;;;;;29.52;17.88;;;;;;;;;;5052428;28;20494;-60
2023/12/13 12:44:42;;;;;;;29.90;17.30;;;;;;;;;;5051918;28;20095;-60
2023/12/13 12:47:10;;;;;;;31.73;20.20;;;;;;;;;;5052268;28;20037;-60
2023/12/13 12:49:37;;;;;;;30.50;19.98;;;;;;;;;;5052454;28;20124;-60
2023/12/13 12:52:05;;;;;;;29.42;18.05;;;;;;;;;;5052332;28;20040;-60
2023/12/13 12:54:33;;;;;;;30.63;19.40;;;;;;;;;;5052309;28;20041;-60
2023/12/13 12:57:00;;;;;;;32.72;21.23;;;;;;;;;;5034444;28;20448;-60
2023/12/13 12:59:28;;;;;;;37.47;21.25;;;;;;;;;;5052480;28;20045;-60
2023/12/13 13:01:55;;;;;;;32.72;20.05;;;;;;;;;;5052454;28;20049;-60
2023/12/13 13:04:25;;;;;;;32.50;20.48;;;;;;;;;;5052141;28;20049;-60
2023/12/13 13:06:53;;;;;;;28.58;19.05;;;;;;;;;;5052223;28;20033;-60
2023/12/13 13:09:20;;;;;;;29.83;19.30;;;;;;;;;;5052185;28;20045;-60
2023/12/13 13:11:48;;;;;;;32.88;20.08;;;;;;;;;;5052139;28;20041;-60
2023/12/13 13:14:15;;;;;;;29.60;19.80;;;;;;;;;;5052235;28;20048;-60
2023/12/13 13:16:43;;;;;;;39.65;22.63;;;;;;;;;;5052036;28;20095;-60
2023/12/13 13:19:11;;;;;;;29.80;19.10;;;;;;;;;;5052137;28;20083;-60
2023/12/13 13:21:39;;;;;;;37.15;22.42;;;;;;;;;;5052012;28;20044;-62
2023/12/13 13:24:07;;;;;;;35.17;21.35;;;;;;;;;;5052447;28;20111;-61
2023/12/13 13:26:36;;;;;;;29.88;20.65;;;;;;;;;;5052216;28;20041;-61
2023/12/13 13:29:05;;;;;;;39.80;22.15;;;;;;;;;;5052160;28;20045;-61
2023/12/13 13:31:33;;;;;;;32.72;20.30;;;;;;;;;;5052006;28;20375;-61
2023/12/13 13:34:01;;;;;;;31.70;20.40;;;;;;;;;;5051908;28;20068;-60
2023/12/13 13:36:28;;;;;;;36.70;21.10;;;;;;;;;;5052058;28;20447;-61
2023/12/13 13:38:56;;;;;;;34.88;19.95;;;;;;;;;;5052011;28;20048;-60
2023/12/13 13:41:25;;;;;;;35.28;22.20;;;;;;;;;;5034549;28;20048;-61
2023/12/13 13:43:53;;;;;;;34.15;22.00;;;;;;;;;;5033973;28;20125;-60
2023/12/13 13:46:21;;;;;;;33.38;21.15;;;;;;;;;;5051900;28;20490;-61
2023/12/13 13:48:48;;;;;;;34.85;21.40;;;;;;;;;;5051716;28;20033;-61
2023/12/13 13:51:16;;;;;;;34.00;21.90;;;;;;;;;;5051642;28;20045;-61
2023/12/13 13:53:44;;;;;;;31.63;21.58;;;;;;;;;;5051765;28;20048;-61
2023/12/13 13:56:12;;;;;;;36.33;22.23;;;;;;;;;;5051682;28;20119;-61
2023/12/13 13:58:44;;;;;;;35.63;22.67;;;;;;;;;;5054461;28;20043;-61
2023/12/13 14:01:12;;;;;;;37.00;22.58;;;;;;;;;;5037626;28;20457;-61
2023/12/13 14:03:39;;;;;;;36.97;21.70;;;;;;;;;;5055114;28;20040;-61
2023/12/13 14:06:07;;;;;;;39.75;22.67;;;;;;;;;;5055515;28;20524;-61
2023/12/13 14:08:35;;;;;;;34.50;21.23;;;;;;;;;;5055083;28;20041;-61
2023/12/13 14:11:03;;;;;;;34.97;22.58;;;;;;;;;;5055120;28;20065;-61
2023/12/13 14:13:31;;;;;;;37.55;22.45;;;;;;;;;;5054932;28;20456;-61
2023/12/13 14:15:58;;;;;;;36.55;23.73;;;;;;;;;;5055079;28;20037;-61
2023/12/13 14:18:26;;;;;;;32.92;21.70;;;;;;;;;;5055295;28;20072;-61
2023/12/13 14:20:54;;;;;;;37.35;21.08;;;;;;;;;;5054890;28;20079;-61